createdAt,value
2023-04-20T00:02:59.733Z,10.20
2023-04-20T00:06:44.099Z,7.40
2023-04-20T00:10:26.226Z,7.60
2023-04-20T00:14:08.275Z,7.20
2023-04-20T00:17:50.896Z,8.77
2023-04-20T00:21:32.958Z,9.30
2023-04-20T00:25:14.951Z,7.13
2023-04-20T00:28:57.552Z,7.95
2023-04-20T00:32:39.558Z,5.43
2023-04-20T00:36:24.622Z,7.93
2023-04-20T00:40:09.356Z,5.78
2023-04-20T00:43:52.710Z,5.40
2023-04-20T00:47:34.815Z,6.33
2023-04-20T00:51:17.070Z,6.75
2023-04-20T00:54:59.306Z,6.43
2023-04-20T00:58:44.452Z,4.90
2023-04-20T01:02:29.258Z,6.45
2023-04-20T01:06:13.911Z,8.10
2023-04-20T01:09:56.449Z,6.63
2023-04-20T01:13:38.812Z,6.80
2023-04-20T01:17:21.284Z,5.28
2023-04-20T01:21:05.272Z,6.03
2023-04-20T01:24:47.810Z,6.63
2023-04-20T01:28:29.924Z,5.43
2023-04-20T01:32:12.505Z,5.38
2023-04-20T01:35:54.901Z,9.17
2023-04-20T01:39:39.270Z,5.88
2023-04-20T01:43:23.750Z,8.00
2023-04-20T01:47:05.913Z,9.23
2023-04-20T01:50:51.851Z,5.13
2023-04-20T01:54:33.839Z,5.28
2023-04-20T01:58:15.995Z,7.07
2023-04-20T02:01:58.103Z,6.33
2023-04-20T02:05:40.301Z,6.13
2023-04-20T02:09:22.273Z,8.05
2023-04-20T02:13:04.278Z,7.47
2023-04-20T02:16:46.987Z,7.63
2023-04-20T02:20:29.175Z,8.10
2023-04-20T02:24:11.264Z,5.87
2023-04-20T02:27:53.394Z,5.65
2023-04-20T02:31:35.799Z,7.93
2023-04-20T02:35:17.850Z,7.22
2023-04-20T02:38:59.991Z,4.73
2023-04-20T02:42:42.713Z,8.10
2023-04-20T02:46:24.837Z,6.60
2023-04-20T02:50:07.583Z,9.57
2023-04-20T02:53:49.546Z,5.20
2023-04-20T02:57:31.580Z,8.18
2023-04-20T03:01:13.634Z,6.13
2023-04-20T03:04:55.709Z,6.68
2023-04-20T03:08:37.601Z,11.50
2023-04-20T03:12:20.057Z,8.40
2023-04-20T03:16:02.289Z,7.97
2023-04-20T03:19:44.537Z,9.52
2023-04-20T03:23:27.416Z,6.20
2023-04-20T03:27:09.616Z,8.17
2023-04-20T03:30:51.562Z,6.68
2023-04-20T03:34:36.231Z,8.25
2023-04-20T03:38:18.138Z,7.00
2023-04-20T03:42:00.250Z,8.52
2023-04-20T03:45:42.267Z,8.07
2023-04-20T03:49:27.967Z,9.45
2023-04-20T03:53:10.065Z,11.87
2023-04-20T03:56:52.146Z,10.60
2023-04-20T04:00:34.128Z,11.10
2023-04-20T04:04:16.367Z,10.17
2023-04-20T04:07:58.421Z,10.07
2023-04-20T04:11:40.477Z,11.95
2023-04-20T04:15:22.393Z,8.77
2023-04-20T04:19:04.406Z,9.43
2023-04-20T04:22:46.439Z,9.15
2023-04-20T04:26:28.673Z,10.00
2023-04-20T04:30:11.310Z,13.80
2023-04-20T04:33:53.267Z,10.88
2023-04-20T04:37:35.198Z,12.90
2023-04-20T04:41:17.724Z,12.00
2023-04-20T04:45:02.057Z,12.07
2023-04-20T04:48:44.123Z,11.07
2023-04-20T04:52:26.067Z,11.13
2023-04-20T04:56:08.331Z,11.23
2023-04-20T04:59:50.417Z,11.05
2023-04-20T05:03:32.638Z,12.02
2023-04-20T05:07:15.287Z,9.80
2023-04-20T05:10:57.958Z,14.32
2023-04-20T05:14:52.384Z,11.15
2023-04-20T05:18:43.060Z,13.40
2023-04-20T05:26:33.842Z,12.98
2023-04-20T05:30:21.264Z,12.43
2023-04-20T05:34:25.818Z,11.13
2023-04-20T05:38:08.168Z,14.75
2023-04-20T05:41:53.979Z,13.52
2023-04-20T05:45:42.543Z,11.20
2023-04-20T05:49:25.522Z,15.18
2023-04-20T05:53:07.851Z,15.55
2023-04-20T05:56:58.999Z,15.43
2023-04-20T06:00:41.588Z,13.75
2023-04-20T06:04:24.490Z,10.68
2023-04-20T06:08:14.084Z,14.63
2023-04-20T06:11:57.456Z,12.82
2023-04-20T06:15:41.817Z,10.50
2023-04-20T06:19:28.446Z,13.52
2023-04-20T06:23:11.946Z,17.80
2023-04-20T06:26:55.199Z,17.85
2023-04-20T06:30:45.267Z,19.58
2023-04-20T06:34:28.034Z,22.07
2023-04-20T06:38:16.666Z,19.90
2023-04-20T06:42:06.193Z,15.82
2023-04-20T06:46:06.572Z,16.63
2023-04-20T06:49:55.227Z,14.95
2023-04-20T06:53:38.166Z,15.07
2023-04-20T07:05:42.743Z,15.10
2023-04-20T07:09:25.189Z,15.68
2023-04-20T07:21:43.664Z,17.52
2023-04-20T07:25:34.800Z,16.40
2023-04-20T07:29:26.332Z,14.95
2023-04-20T07:37:34.595Z,14.82
2023-04-20T07:49:41.174Z,14.30
2023-04-20T07:53:44.000Z,18.48
2023-04-20T07:57:34.424Z,15.07
2023-04-20T08:01:39.500Z,15.15
2023-04-20T08:05:28.576Z,14.23
2023-04-20T08:09:31.452Z,13.47
2023-04-20T08:13:15.559Z,13.90
2023-04-20T08:17:47.673Z,16.20
2023-04-20T08:21:30.098Z,14.20
2023-04-20T08:41:30.542Z,13.00
2023-04-20T08:50:26.727Z,11.33
2023-04-20T08:54:10.536Z,13.15
2023-04-20T08:57:56.960Z,12.98
2023-04-20T09:01:43.442Z,11.50
2023-04-20T09:09:37.588Z,13.40
2023-04-20T09:17:42.824Z,12.10
2023-04-20T09:21:35.984Z,8.88
2023-04-20T09:26:05.248Z,11.38
2023-04-20T09:29:59.711Z,9.07
2023-04-20T09:34:01.319Z,11.88
2023-04-20T09:37:56.976Z,10.18
2023-04-20T09:46:21.090Z,8.77
2023-04-20T09:50:29.367Z,10.50
2023-04-20T09:54:50.766Z,7.63
2023-04-20T09:59:18.625Z,8.95
2023-04-20T10:08:20.589Z,9.80
2023-04-20T10:21:56.025Z,9.48
2023-04-20T10:31:00.817Z,7.82
2023-04-20T10:40:00.759Z,11.30
2023-04-20T10:53:32.562Z,10.68
2023-04-20T10:57:53.323Z,9.97
2023-04-20T11:17:03.251Z,7.00
2023-04-20T11:25:30.213Z,10.45
2023-04-20T11:33:23.472Z,11.00
2023-04-20T12:01:00.233Z,7.47
2023-04-20T12:10:00.918Z,6.63
2023-04-20T12:37:01.131Z,5.53
2023-04-20T12:57:54.431Z,4.97
2023-04-20T13:46:20.943Z,6.40
2023-04-20T14:18:26.986Z,9.70
2023-04-20T14:35:51.387Z,9.13
2023-04-20T14:39:48.132Z,7.43
2023-04-20T14:43:47.773Z,8.13
2023-04-20T15:01:59.108Z,6.40
2023-04-20T15:39:31.648Z,6.28
2023-04-20T15:44:01.960Z,8.25
2023-04-20T15:53:01.980Z,4.22
2023-04-20T16:00:55.223Z,6.73
2023-04-20T16:36:57.886Z,4.57
2023-04-20T16:46:00.576Z,3.93
2023-04-20T16:54:25.148Z,5.82
2023-04-20T17:23:44.224Z,4.55
2023-04-20T17:32:09.303Z,3.55
2023-04-20T17:36:06.081Z,4.65
2023-04-20T17:40:02.140Z,4.45
2023-04-20T17:49:02.278Z,5.32
2023-04-20T18:54:21.116Z,10.20
2023-04-20T19:26:16.785Z,8.57
2023-04-20T19:29:58.907Z,7.40
2023-04-20T19:33:41.138Z,9.90
2023-04-20T19:37:23.933Z,8.32
2023-04-20T19:41:06.987Z,8.90
2023-04-20T19:44:49.270Z,8.25
2023-04-20T19:48:31.456Z,8.27
2023-04-20T19:52:13.528Z,12.43
2023-04-20T19:55:55.902Z,11.98
2023-04-20T19:59:41.184Z,9.52
2023-04-20T20:03:24.246Z,10.57
2023-04-20T20:07:06.624Z,7.83
2023-04-20T20:10:49.233Z,10.85
2023-04-20T20:14:32.840Z,7.65
2023-04-20T20:18:14.894Z,6.10
2023-04-20T20:22:01.748Z,6.10
2023-04-20T20:25:43.896Z,6.28
2023-04-20T20:29:26.054Z,4.78
2023-04-20T20:33:08.255Z,7.28
2023-04-20T20:36:51.467Z,5.80
2023-04-20T20:40:41.551Z,5.82
2023-04-20T20:44:23.884Z,6.60
2023-04-20T20:48:06.222Z,6.70
2023-04-20T20:51:48.474Z,6.50
2023-04-20T20:55:31.892Z,8.20
2023-04-20T20:59:14.068Z,6.35
2023-04-20T21:02:57.500Z,7.18
2023-04-20T21:06:39.684Z,6.53
2023-04-20T21:10:21.834Z,4.47
2023-04-20T21:14:04.171Z,4.22
2023-04-20T21:17:46.453Z,5.65
2023-04-20T21:21:31.731Z,4.90
2023-04-20T21:25:13.862Z,3.63
2023-04-20T21:28:55.894Z,4.82
2023-04-20T21:32:38.055Z,3.70
2023-04-20T21:36:20.165Z,5.63
2023-04-20T21:40:05.163Z,5.93
2023-04-20T21:43:51.575Z,4.80
2023-04-20T21:47:36.311Z,3.45
2023-04-20T21:51:18.748Z,4.80
2023-04-20T21:55:00.898Z,5.70
2023-04-20T21:58:45.882Z,5.57
2023-04-20T22:02:28.138Z,6.22
2023-04-20T22:06:12.787Z,6.30
2023-04-20T22:09:55.517Z,5.53
2023-04-20T22:13:37.720Z,5.57
2023-04-20T22:17:19.741Z,4.03
2023-04-20T22:21:01.701Z,6.87
2023-04-20T22:24:44.619Z,5.53
2023-04-20T22:28:26.657Z,6.50
2023-04-20T22:32:08.576Z,6.90
2023-04-20T22:35:50.615Z,7.43
2023-04-20T22:39:32.625Z,5.80
2023-04-20T22:43:14.761Z,5.43
2023-04-20T22:46:56.832Z,5.63
2023-04-20T22:50:38.872Z,5.50
2023-04-20T22:54:20.865Z,6.22
2023-04-20T22:58:02.850Z,4.27
2023-04-20T23:01:44.830Z,10.13
2023-04-20T23:05:26.885Z,8.30
2023-04-20T23:09:08.866Z,9.20
2023-04-20T23:12:50.781Z,6.87
2023-04-20T23:16:33.407Z,7.60
2023-04-20T23:20:15.498Z,7.05
2023-04-20T23:23:57.852Z,6.93
2023-04-20T23:27:39.772Z,8.50
2023-04-20T23:31:21.825Z,8.10
2023-04-20T23:35:04.227Z,10.17
2023-04-20T23:38:46.353Z,7.97
2023-04-20T23:42:28.309Z,7.60
2023-04-20T23:46:10.604Z,7.95
2023-04-20T23:49:52.570Z,7.47
2023-04-20T23:53:39.309Z,8.07
2023-04-20T23:57:21.226Z,7.53
